createdAt,value
2023-09-23T00:01:52.830Z,3.90
2023-09-23T00:05:17.724Z,2.87
2023-09-23T00:08:40.786Z,3.47
2023-09-23T00:12:03.324Z,3.60
2023-09-23T00:15:24.982Z,3.47
2023-09-23T00:18:47.111Z,3.13
2023-09-23T00:22:09.265Z,2.97
2023-09-23T00:25:31.019Z,3.03
2023-09-23T00:28:53.790Z,2.60
2023-09-23T00:32:15.808Z,3.07
2023-09-23T00:35:38.054Z,3.13
2023-09-23T00:38:59.959Z,3.07
2023-09-23T00:42:23.631Z,2.80
2023-09-23T00:45:49.315Z,3.50
2023-09-23T00:49:11.956Z,3.13
2023-09-23T00:52:33.618Z,2.90
2023-09-23T00:55:56.759Z,3.70
2023-09-23T00:59:19.582Z,3.27
2023-09-23T01:02:42.546Z,3.20
2023-09-23T01:06:06.384Z,3.40
2023-09-23T01:09:30.891Z,3.90
2023-09-23T01:12:52.749Z,3.23
2023-09-23T01:16:15.050Z,3.53
2023-09-23T01:19:38.347Z,3.00
2023-09-23T01:23:01.506Z,3.17
2023-09-23T01:26:22.971Z,3.50
2023-09-23T01:29:44.367Z,3.53
2023-09-23T01:33:08.646Z,3.37
2023-09-23T01:36:30.076Z,3.63
2023-09-23T01:39:52.632Z,3.53
2023-09-23T01:43:14.044Z,2.93
2023-09-23T01:46:36.409Z,3.40
2023-09-23T01:49:57.773Z,3.00
2023-09-23T01:53:22.564Z,3.50
2023-09-23T01:56:45.140Z,3.30
2023-09-23T02:00:09.135Z,3.90
2023-09-23T02:03:30.717Z,4.00
2023-09-23T02:06:52.837Z,3.60
2023-09-23T02:10:16.411Z,4.37
2023-09-23T02:13:42.203Z,4.37
2023-09-23T02:17:04.629Z,4.53
2023-09-23T02:20:26.271Z,4.47
2023-09-23T02:23:47.739Z,5.10
2023-09-23T02:27:09.418Z,4.73
2023-09-23T02:30:33.487Z,4.90
2023-09-23T02:33:54.967Z,5.00
2023-09-23T02:37:16.711Z,5.83
2023-09-23T02:40:41.697Z,5.17
2023-09-23T02:44:05.246Z,6.50
2023-09-23T02:47:28.278Z,5.77
2023-09-23T02:50:50.125Z,6.40
2023-09-23T02:54:14.673Z,6.57
2023-09-23T02:57:37.674Z,6.40
2023-09-23T03:00:59.238Z,8.10
2023-09-23T03:04:24.829Z,7.77
2023-09-23T03:07:49.697Z,6.50
2023-09-23T03:11:14.265Z,6.90
2023-09-23T03:14:39.829Z,7.00
2023-09-23T03:18:01.791Z,6.80
2023-09-23T03:21:24.795Z,7.43
2023-09-23T03:24:49.461Z,8.00
2023-09-23T03:28:10.813Z,8.93
2023-09-23T03:31:33.266Z,7.67
2023-09-23T03:34:54.904Z,8.13
2023-09-23T03:38:17.822Z,8.30
2023-09-23T03:41:39.838Z,8.70
2023-09-23T03:45:01.621Z,6.97
2023-09-23T03:48:23.365Z,7.70
2023-09-23T03:51:45.103Z,6.97
2023-09-23T03:55:09.974Z,7.97
2023-09-23T03:58:31.435Z,7.53
2023-09-23T04:01:53.074Z,8.30
2023-09-23T04:05:15.611Z,9.30
2023-09-23T04:08:37.039Z,9.93
2023-09-23T04:12:01.272Z,9.17
2023-09-23T04:15:23.314Z,9.77
2023-09-23T04:18:44.907Z,10.10
2023-09-23T04:22:06.994Z,11.40
2023-09-23T04:25:28.395Z,9.50
2023-09-23T04:28:53.359Z,9.60
2023-09-23T04:32:14.785Z,10.20
2023-09-23T04:35:36.807Z,10.87
2023-09-23T04:38:58.165Z,10.17
2023-09-23T04:42:19.685Z,9.40
2023-09-23T04:45:42.437Z,10.93
2023-09-23T04:49:04.277Z,10.63
2023-09-23T04:52:26.007Z,10.23
2023-09-23T04:55:47.939Z,11.33
2023-09-23T04:59:09.693Z,11.43
2023-09-23T05:02:32.702Z,11.97
2023-09-23T05:05:54.620Z,10.97
2023-09-23T05:09:17.611Z,11.97
2023-09-23T05:12:39.616Z,14.20
2023-09-23T05:16:01.286Z,12.77
2023-09-23T05:19:24.221Z,13.03
2023-09-23T05:22:45.553Z,13.33
2023-09-23T05:26:08.413Z,12.07
2023-09-23T05:29:29.654Z,12.80
2023-09-23T05:32:52.173Z,13.30
2023-09-23T05:36:15.465Z,12.07
2023-09-23T05:39:36.806Z,12.50
2023-09-23T05:42:58.387Z,12.37
2023-09-23T05:46:20.363Z,11.70
2023-09-23T05:49:45.149Z,12.73
2023-09-23T05:53:08.616Z,12.43
2023-09-23T05:56:30.175Z,12.60
2023-09-23T05:59:51.558Z,12.87
2023-09-23T06:03:14.183Z,13.23
2023-09-23T06:06:35.692Z,13.07
2023-09-23T06:10:01.084Z,13.27
2023-09-23T06:13:23.016Z,13.70
2023-09-23T06:16:45.249Z,11.50
2023-09-23T06:20:08.553Z,13.13
2023-09-23T06:23:30.798Z,12.83
2023-09-23T06:26:53.584Z,12.93
2023-09-23T06:30:16.505Z,12.13
2023-09-23T06:33:37.998Z,11.97
2023-09-23T06:36:59.343Z,12.13
2023-09-23T06:40:20.622Z,11.73
2023-09-23T06:43:43.504Z,11.03
2023-09-23T06:47:05.482Z,10.37
2023-09-23T06:50:27.279Z,10.07
2023-09-23T06:53:49.502Z,11.13
2023-09-23T06:57:11.089Z,11.77
2023-09-23T07:00:34.065Z,10.60
2023-09-23T07:03:55.542Z,8.87
2023-09-23T07:07:17.064Z,7.70
2023-09-23T07:10:39.281Z,7.87
2023-09-23T07:14:01.965Z,6.17
2023-09-23T07:17:25.212Z,5.20
2023-09-23T07:20:46.773Z,5.77
2023-09-23T07:24:10.977Z,5.93
2023-09-23T07:27:34.447Z,5.23
2023-09-23T07:30:57.102Z,4.20
2023-09-23T07:34:20.089Z,4.47
2023-09-23T07:37:42.783Z,3.80
2023-09-23T07:41:04.404Z,3.67
2023-09-23T07:44:26.088Z,3.10
2023-09-23T07:47:47.508Z,3.00
2023-09-23T07:51:11.078Z,3.20
2023-09-23T07:54:33.715Z,2.53
2023-09-23T07:57:55.115Z,2.60
2023-09-23T08:01:16.414Z,2.30
2023-09-23T08:04:38.119Z,2.80
2023-09-23T08:08:01.247Z,2.80
2023-09-23T08:11:22.610Z,2.77
2023-09-23T08:14:44.201Z,2.43
2023-09-23T08:18:06.246Z,2.43
2023-09-23T08:21:28.173Z,2.33
2023-09-23T08:24:51.056Z,2.00
2023-09-23T08:28:14.521Z,1.93
2023-09-23T08:31:36.135Z,2.00
2023-09-23T08:34:57.553Z,1.80
2023-09-23T08:38:19.411Z,1.70
2023-09-23T08:41:42.600Z,1.80
2023-09-23T08:45:06.584Z,1.87
2023-09-23T08:48:27.932Z,1.67
2023-09-23T08:51:51.790Z,1.83
2023-09-23T08:55:13.841Z,2.40
2023-09-23T08:58:36.829Z,2.70
2023-09-23T09:01:58.450Z,2.40
2023-09-23T09:05:20.982Z,3.00
2023-09-23T09:08:43.547Z,2.60
2023-09-23T09:12:07.899Z,2.80
2023-09-23T09:15:31.742Z,3.37
2023-09-23T09:18:53.282Z,2.60
2023-09-23T09:22:17.242Z,3.00
2023-09-23T09:25:38.720Z,4.10
2023-09-23T09:29:00.629Z,3.10
2023-09-23T09:32:29.844Z,2.87
2023-09-23T09:35:55.340Z,3.00
2023-09-23T09:39:21.916Z,2.50
2023-09-23T09:42:49.493Z,2.33
2023-09-23T09:46:14.132Z,2.30
2023-09-23T09:49:40.112Z,2.20
2023-09-23T09:53:01.448Z,1.93
2023-09-23T09:56:23.590Z,1.80
2023-09-23T09:59:45.263Z,1.80
2023-09-23T10:03:07.923Z,2.27
2023-09-23T10:06:41.552Z,2.07
2023-09-23T10:10:03.378Z,1.90
2023-09-23T10:13:25.429Z,2.00
2023-09-23T10:16:51.048Z,1.90
2023-09-23T10:20:18.739Z,1.73
2023-09-23T10:23:41.413Z,2.60
2023-09-23T10:27:07.025Z,2.03
2023-09-23T10:30:28.896Z,1.90
2023-09-23T10:33:50.209Z,2.20
2023-09-23T10:37:12.376Z,2.27
2023-09-23T10:40:35.128Z,2.20
2023-09-23T10:43:57.039Z,2.10
2023-09-23T10:47:18.630Z,2.27
2023-09-23T10:50:41.783Z,1.80
2023-09-23T10:54:03.816Z,2.03
2023-09-23T10:57:26.566Z,2.20
2023-09-23T11:00:48.158Z,1.90
2023-09-23T11:04:10.632Z,1.93
2023-09-23T11:07:32.665Z,2.00
2023-09-23T11:10:53.949Z,1.93
2023-09-23T11:14:16.732Z,2.13
2023-09-23T11:17:38.154Z,2.07
2023-09-23T11:21:03.776Z,2.00
2023-09-23T11:24:25.531Z,2.00
2023-09-23T11:27:50.039Z,2.63
2023-09-23T11:31:12.627Z,2.80
2023-09-23T11:34:34.107Z,2.80
2023-09-23T11:37:56.928Z,2.07
2023-09-23T11:41:18.949Z,2.67
2023-09-23T11:44:40.567Z,2.63
2023-09-23T11:48:05.178Z,2.57
2023-09-23T11:51:26.592Z,2.80
2023-09-23T11:54:48.204Z,3.00
2023-09-23T11:58:10.162Z,2.67
2023-09-23T12:01:32.316Z,2.90
2023-09-23T12:04:55.254Z,2.90
2023-09-23T12:08:17.130Z,3.00
2023-09-23T12:11:38.837Z,3.67
2023-09-23T12:15:02.227Z,4.73
2023-09-23T12:18:23.785Z,4.70
2023-09-23T12:21:46.836Z,4.60
2023-09-23T12:25:09.853Z,5.00
2023-09-23T12:28:31.568Z,4.70
2023-09-23T12:31:53.148Z,4.83
2023-09-23T12:35:15.059Z,5.17
2023-09-23T12:38:38.225Z,3.90
2023-09-23T12:41:59.420Z,4.30
2023-09-23T12:45:21.302Z,4.20
2023-09-23T12:48:42.734Z,4.13
2023-09-23T12:52:04.675Z,4.57
2023-09-23T12:55:27.713Z,4.73
2023-09-23T12:58:49.547Z,4.93
2023-09-23T13:02:11.165Z,4.80
2023-09-23T13:05:33.550Z,4.80
2023-09-23T13:08:55.382Z,3.70
2023-09-23T13:12:18.622Z,3.50
2023-09-23T13:15:41.434Z,3.33
2023-09-23T13:19:03.278Z,3.57
2023-09-23T13:22:24.555Z,3.13
2023-09-23T13:25:46.524Z,2.87
2023-09-23T13:29:09.486Z,3.30
2023-09-23T13:32:31.125Z,2.93
2023-09-23T13:35:52.710Z,3.80
2023-09-23T13:39:15.877Z,3.40
2023-09-23T13:42:37.529Z,3.40
2023-09-23T13:46:00.263Z,3.40
2023-09-23T13:49:21.899Z,3.30
2023-09-23T13:52:43.393Z,3.10
2023-09-23T13:56:05.423Z,3.47
2023-09-23T13:59:27.267Z,3.20
2023-09-23T14:02:49.872Z,2.80
2023-09-23T14:06:11.734Z,3.33
2023-09-23T14:09:34.596Z,3.00
2023-09-23T14:12:56.589Z,3.10
2023-09-23T14:16:17.872Z,2.50
2023-09-23T14:19:41.081Z,3.20
2023-09-23T14:23:02.963Z,2.70
2023-09-23T14:26:24.635Z,2.23
2023-09-23T14:29:45.919Z,2.53
2023-09-23T14:33:07.756Z,2.57
2023-09-23T14:36:32.280Z,2.80
2023-09-23T14:39:54.651Z,2.00
2023-09-23T14:43:16.611Z,2.10
2023-09-23T14:46:38.147Z,1.80
2023-09-23T14:50:00.736Z,1.90
2023-09-23T14:53:23.341Z,2.00
2023-09-23T14:56:45.164Z,1.93
2023-09-23T15:00:08.312Z,1.83
2023-09-23T15:03:30.054Z,2.03
2023-09-23T15:06:51.766Z,1.90
2023-09-23T15:10:14.604Z,2.13
2023-09-23T15:13:36.140Z,1.87
2023-09-23T15:16:57.929Z,2.00
2023-09-23T15:20:19.427Z,2.30
2023-09-23T15:23:41.048Z,1.90
2023-09-23T15:27:03.618Z,2.43
2023-09-23T15:30:25.181Z,2.57
2023-09-23T15:33:47.402Z,2.70
2023-09-23T15:37:08.952Z,2.50
2023-09-23T15:40:30.408Z,2.10
2023-09-23T15:43:53.242Z,2.47
2023-09-23T15:47:14.734Z,2.30
2023-09-23T15:50:36.189Z,2.00
2023-09-23T15:53:57.470Z,2.37
2023-09-23T15:57:19.074Z,3.00
2023-09-23T16:00:41.577Z,2.70
2023-09-23T16:04:03.522Z,2.57
2023-09-23T16:07:25.450Z,2.87
2023-09-23T16:10:46.861Z,3.07
2023-09-23T16:14:10.598Z,1.83
2023-09-23T16:17:33.570Z,1.57
2023-09-23T16:20:55.032Z,1.50
2023-09-23T16:24:16.485Z,1.57
2023-09-23T16:27:38.401Z,1.47
2023-09-23T16:30:59.853Z,1.07
2023-09-23T16:34:22.516Z,1.10
2023-09-23T16:37:44.560Z,0.80
2023-09-23T16:41:06.963Z,0.63
2023-09-23T16:44:28.459Z,0.50
2023-09-23T16:47:50.274Z,0.53
2023-09-23T16:51:13.233Z,0.70
2023-09-23T16:54:34.864Z,0.60
2023-09-23T16:57:56.299Z,0.70
2023-09-23T17:01:17.772Z,0.60
2023-09-23T17:04:39.160Z,0.57
2023-09-23T17:08:02.113Z,0.73
2023-09-23T17:11:23.586Z,0.63
2023-09-23T17:14:45.253Z,0.73
2023-09-23T17:18:07.573Z,0.80
2023-09-23T17:21:29.032Z,1.00
2023-09-23T17:24:51.851Z,1.00
2023-09-23T17:28:13.245Z,1.40
2023-09-23T17:31:34.686Z,1.50
2023-09-23T17:34:56.119Z,1.97
2023-09-23T17:38:17.683Z,1.50
2023-09-23T17:41:40.972Z,1.70
2023-09-23T17:45:02.455Z,1.60
2023-09-23T17:48:25.929Z,1.50
2023-09-23T17:51:48.205Z,1.67
2023-09-23T17:55:10.422Z,1.90
2023-09-23T17:58:33.235Z,1.60
2023-09-23T18:01:54.696Z,1.90
2023-09-23T18:05:16.229Z,1.80
2023-09-23T18:08:37.751Z,1.73
2023-09-23T18:11:58.982Z,2.63
2023-09-23T18:15:22.629Z,2.47
2023-09-23T18:18:47.231Z,3.20
2023-09-23T18:22:08.831Z,2.97
2023-09-23T18:25:33.103Z,2.70
2023-09-23T18:28:55.489Z,2.97
2023-09-23T18:32:18.246Z,2.97
2023-09-23T18:35:40.002Z,2.80
2023-09-23T18:39:01.488Z,2.77
2023-09-23T18:42:23.078Z,2.40
2023-09-23T18:45:44.731Z,2.40
2023-09-23T18:49:07.757Z,2.67
2023-09-23T18:52:29.343Z,2.10
2023-09-23T18:55:50.696Z,2.17
2023-09-23T18:59:12.438Z,2.40
2023-09-23T19:02:35.160Z,2.50
2023-09-23T19:05:58.764Z,2.30
2023-09-23T19:09:20.841Z,2.67
2023-09-23T19:12:42.288Z,2.07
2023-09-23T19:16:03.876Z,2.50
2023-09-23T19:19:25.440Z,2.63
2023-09-23T19:22:48.806Z,3.20
2023-09-23T19:26:10.066Z,2.60
2023-09-23T19:29:31.754Z,3.33
2023-09-23T19:32:54.754Z,3.53
2023-09-23T19:36:16.058Z,3.30
2023-09-23T19:39:38.948Z,3.30
2023-09-23T19:43:00.675Z,3.33
2023-09-23T19:46:23.194Z,3.67
2023-09-23T19:49:45.282Z,2.63
2023-09-23T19:53:06.979Z,3.03
2023-09-23T19:56:29.970Z,3.50
2023-09-23T19:59:51.911Z,3.90
2023-09-23T20:03:15.117Z,4.10
2023-09-23T20:06:36.763Z,3.87
2023-09-23T20:09:58.738Z,3.93
2023-09-23T20:13:22.198Z,3.50
2023-09-23T20:16:45.609Z,3.60
2023-09-23T20:20:09.535Z,4.20
2023-09-23T20:23:32.704Z,4.03
2023-09-23T20:26:54.551Z,4.17
2023-09-23T20:30:18.232Z,4.17
2023-09-23T20:33:40.205Z,4.27
2023-09-23T20:37:01.738Z,4.13
2023-09-23T20:40:23.496Z,4.00
2023-09-23T20:43:50.082Z,4.27
2023-09-23T20:47:13.240Z,4.20
2023-09-23T20:50:34.623Z,4.00
2023-09-23T20:53:56.906Z,4.30
2023-09-23T20:57:18.452Z,4.27
2023-09-23T21:00:40.404Z,4.27
2023-09-23T21:04:03.521Z,4.47
2023-09-23T21:07:25.097Z,4.47
2023-09-23T21:10:46.345Z,4.23
2023-09-23T21:14:08.339Z,4.50
2023-09-23T21:17:30.102Z,4.70
2023-09-23T21:20:53.223Z,4.20
2023-09-23T21:24:15.164Z,4.47
2023-09-23T21:27:36.590Z,4.70
2023-09-23T21:30:57.907Z,4.50
2023-09-23T21:34:19.751Z,4.07
2023-09-23T21:37:42.567Z,4.60
2023-09-23T21:41:04.534Z,4.93
2023-09-23T21:44:28.217Z,4.70
2023-09-23T21:47:50.981Z,5.03
2023-09-23T21:51:12.746Z,4.27
2023-09-23T21:54:36.993Z,4.63
2023-09-23T21:57:58.574Z,4.50
2023-09-23T22:01:20.648Z,4.40
2023-09-23T22:04:42.066Z,4.20
2023-09-23T22:08:04.884Z,4.43
2023-09-23T22:11:27.900Z,4.33
2023-09-23T22:14:49.239Z,4.33
2023-09-23T22:18:13.398Z,5.17
2023-09-23T22:21:36.683Z,5.13
2023-09-23T22:24:58.491Z,5.40
2023-09-23T22:28:21.269Z,5.13
2023-09-23T22:31:42.625Z,5.80
2023-09-23T22:35:04.483Z,5.50
2023-09-23T22:38:25.772Z,5.73
2023-09-23T22:41:47.758Z,5.83
2023-09-23T22:45:17.646Z,5.47
2023-09-23T22:48:45.008Z,6.13
2023-09-23T22:52:07.926Z,6.07
2023-09-23T22:55:29.590Z,6.30
2023-09-23T22:58:52.126Z,6.63
2023-09-23T23:02:16.509Z,6.27
2023-09-23T23:05:38.640Z,6.60
2023-09-23T23:09:00.398Z,6.60
2023-09-23T23:12:22.737Z,6.13
2023-09-23T23:15:44.977Z,6.17
2023-09-23T23:19:08.102Z,5.40
2023-09-23T23:22:29.935Z,6.33
2023-09-23T23:25:51.340Z,6.33
2023-09-23T23:29:14.797Z,6.77
2023-09-23T23:32:36.468Z,7.50
2023-09-23T23:35:59.868Z,7.20
2023-09-23T23:39:21.471Z,6.53
2023-09-23T23:42:42.733Z,7.00
2023-09-23T23:46:05.175Z,7.20
2023-09-23T23:49:26.923Z,6.90
2023-09-23T23:52:49.927Z,6.90
2023-09-23T23:56:11.581Z,6.27
2023-09-23T23:59:32.992Z,7.50
